Time;durP1;ratioP1;P1;durP2;ratioP2;P2;SDS_P1;SDS_P2;PMS_P1;PMS_P2;Temp;Humidity;BMP_temperature;BMP_pressure;BME280_temperature;BME280_humidity;BME280_pressure;Samples;Min_cycle;Max_cycle;Signal;HPM_P1;HPM_P2
2022/03/21 00:01:12;;;;;;;24.70;18.80;;;;;;;2.06;55.01;97949.59;5014571;28;20448;-75
2022/03/21 00:03:40;;;;;;;24.90;17.33;;;;;;;1.69;54.66;97902.97;5031917;28;20543;-74
2022/03/21 00:06:07;;;;;;;17.03;15.23;;;;;;;1.82;54.56;97932.41;5015075;28;20456;-75
2022/03/21 00:08:34;;;;;;;32.43;26.63;;;;;;;1.83;54.95;97957.47;5016073;28;20472;-74
2022/03/21 00:11:02;;;;;;;28.93;22.10;;;;;;;1.59;54.78;97933.22;5027900;28;20502;-74
2022/03/21 00:13:30;;;;;;;26.00;18.70;;;;;;;1.75;54.96;97948.19;5001392;28;20469;-74
2022/03/21 00:15:57;;;;;;;37.23;25.50;;;;;;;1.74;54.71;97951.81;5034520;28;20478;-74
2022/03/21 00:18:26;;;;;;;16.03;14.27;;;;;;;1.51;54.79;97933.59;5020945;28;20486;-74
2022/03/21 00:20:54;;;;;;;16.23;12.90;;;;;;;1.60;54.83;97950.44;5036419;28;20439;-74
2022/03/21 00:23:23;;;;;;;21.90;17.90;;;;;;;1.36;55.48;97915.81;5019711;28;20498;-74
2022/03/21 00:25:50;;;;;;;21.30;17.53;;;;;;;1.43;55.57;97929.50;5013249;28;21003;-75
2022/03/21 00:28:17;;;;;;;15.97;14.27;;;;;;;1.29;55.82;97917.72;5014514;28;20444;-74
2022/03/21 00:30:45;;;;;;;17.13;13.20;;;;;;;1.64;55.36;97954.22;5013546;28;20469;-75
2022/03/21 00:33:13;;;;;;;16.63;14.70;;;;;;;1.63;55.63;97950.03;5014895;28;20439;-74
2022/03/21 00:35:45;;;;;;;17.27;15.30;;;;;;;1.44;55.76;97921.47;5026929;28;20460;-74
2022/03/21 00:38:16;;;;;;;17.63;14.43;;;;;;;1.47;55.93;97941.09;5016149;28;20417;-74
2022/03/21 00:40:45;;;;;;;19.40;14.70;;;;;;;1.63;55.66;97957.84;5015697;28;20448;-74
2022/03/21 00:43:19;;;;;;;12.17;9.33;;;;;;;1.46;55.83;97965.53;5010102;28;20861;-74
2022/03/21 00:45:47;;;;;;;16.57;10.20;;;;;;;1.41;56.58;97961.00;5034691;28;20467;-74
2022/03/21 00:48:14;;;;;;;18.20;9.60;;;;;;;1.42;56.43;97969.63;5026004;28;20968;-74
2022/03/21 00:50:41;;;;;;;12.93;10.27;;;;;;;1.41;57.36;97958.41;5015301;28;20456;-74
2022/03/21 00:53:08;;;;;;;13.30;10.70;;;;;;;1.32;58.06;97964.97;5022226;28;20490;-74
2022/03/21 00:55:34;;;;;;;9.90;8.90;;;;;;;1.14;57.95;97939.03;5019345;28;20457;-74
2022/03/21 00:58:01;;;;;;;14.77;9.93;;;;;;;1.19;57.82;97955.53;5034921;28;20917;-75
2022/03/21 01:00:29;;;;;;;10.67;9.10;;;;;;;0.74;59.24;97937.03;5034549;28;20450;-74
2022/03/21 01:02:59;;;;;;;17.10;11.47;;;;;;;0.45;59.73;97930.84;5030807;28;20936;-74
2022/03/21 01:05:27;;;;;;;12.87;10.93;;;;;;;0.13;60.66;97932.06;5016689;28;20464;-74
2022/03/21 01:07:54;;;;;;;18.27;14.37;;;;;;;0.24;61.71;97957.31;5025188;28;20435;-74
2022/03/21 01:10:23;;;;;;;14.13;11.20;;;;;;;0.23;62.89;97960.94;5032026;28;21025;-74
2022/03/21 01:12:50;;;;;;;21.07;12.37;;;;;;;0.34;63.96;97960.19;5014401;28;20451;-74
2022/03/21 01:15:19;;;;;;;13.57;11.20;;;;;;;0.28;64.55;97955.91;5017341;28;20451;-74
2022/03/21 01:17:46;;;;;;;14.37;10.70;;;;;;;0.23;64.34;97955.75;5022770;28;20438;-74
2022/03/21 01:20:15;;;;;;;17.13;11.77;;;;;;;0.13;64.69;97924.25;5047103;28;20440;-75
2022/03/21 01:22:43;;;;;;;17.17;11.07;;;;;;;0.28;64.25;97942.88;5057261;28;20424;-75
2022/03/21 01:25:10;;;;;;;14.83;11.87;;;;;;;0.10;65.27;97948.88;5018986;28;20473;-75
2022/03/21 01:27:38;;;;;;;16.67;14.90;;;;;;;-0.11;65.34;97931.97;5020511;28;20431;-75
2022/03/21 01:30:08;;;;;;;14.50;11.37;;;;;;;-0.30;66.32;97925.94;5030593;28;20554;-75
2022/03/21 01:32:35;;;;;;;17.03;11.43;;;;;;;-0.23;67.36;97951.88;5019100;28;20475;-75
2022/03/21 01:35:03;;;;;;;19.10;13.80;;;;;;;-0.22;68.06;97947.47;5019528;28;20486;-75
2022/03/21 01:37:30;;;;;;;15.40;13.30;;;;;;;-0.13;67.97;97941.00;5050443;28;20436;-75
2022/03/21 01:39:56;;;;;;;16.20;12.70;;;;;;;-0.08;67.84;97949.72;5027770;28;20951;-75
2022/03/21 01:42:23;;;;;;;20.73;15.53;;;;;;;0.07;67.96;97953.75;5013171;28;20434;-75
2022/03/21 01:44:51;;;;;;;16.70;14.43;;;;;;;0.22;68.14;97952.34;5025292;28;20447;-75
2022/03/21 01:47:18;;;;;;;21.97;17.67;;;;;;;0.16;67.59;97952.44;5025995;28;20517;-75
2022/03/21 01:49:45;;;;;;;22.90;19.77;;;;;;;0.18;68.26;97955.63;5044200;28;20433;-75
2022/03/21 01:52:13;;;;;;;17.70;15.70;;;;;;;0.20;67.53;97946.56;5024692;28;21315;-75
2022/03/21 01:57:28;;;;;;;17.90;14.00;;;;;;;-0.03;68.42;97916.03;5023263;28;20463;-75
2022/03/21 01:59:55;;;;;;;15.10;12.63;;;;;;;0.23;68.02;97956.53;5022031;28;20953;-75
2022/03/21 02:02:22;;;;;;;15.57;13.97;;;;;;;0.07;68.29;97948.53;5019073;28;20923;-75
2022/03/21 02:04:49;;;;;;;15.60;12.13;;;;;;;-0.03;69.04;97936.06;5019709;28;20507;-75
2022/03/21 02:07:17;;;;;;;14.23;11.53;;;;;;;0.03;68.56;97942.19;5028846;28;20529;-75
2022/03/21 02:09:44;;;;;;;14.63;11.67;;;;;;;-0.21;68.55;97900.47;5019494;28;21305;-75
2022/03/21 02:12:10;;;;;;;17.10;12.97;;;;;;;-0.18;70.01;97909.63;5017014;28;20478;-75
2022/03/21 02:14:39;;;;;;;18.70;12.03;;;;;;;-0.08;72.31;97925.53;5018865;28;20992;-75
2022/03/21 02:17:06;;;;;;;16.73;12.60;;;;;;;-0.09;74.32;97927.34;5023945;28;20460;-75
2022/03/21 02:19:38;;;;;;;14.97;11.40;;;;;;;-0.47;73.73;97888.56;5012088;28;20947;-75
2022/03/21 02:22:33;;;;;;;13.50;11.67;;;;;;;-0.23;74.35;97935.50;5005142;28;20522;-75
2022/03/21 02:25:09;;;;;;;15.40;11.70;;;;;;;-0.14;73.59;97934.97;5017251;28;20531;-75
2022/03/21 02:27:37;;;;;;;14.30;12.80;;;;;;;-0.33;73.70;97907.41;5020202;28;20513;-74
2022/03/21 02:30:05;;;;;;;12.53;11.23;;;;;;;-0.26;73.82;97930.75;5025127;28;20436;-75
2022/03/21 02:32:32;;;;;;;17.77;12.60;;;;;;;-0.39;72.55;97900.50;5023983;28;20452;-75
2022/03/21 02:34:58;;;;;;;18.07;14.07;;;;;;;-0.40;73.58;97930.06;5016922;28;20463;-74
2022/03/21 02:37:26;;;;;;;19.73;13.87;;;;;;;-0.56;73.46;97936.63;5017362;28;20445;-75
2022/03/21 02:39:55;;;;;;;17.30;13.67;;;;;;;-0.76;72.96;97894.47;5023744;28;20494;-75
2022/03/21 02:42:22;;;;;;;14.30;11.80;;;;;;;-0.48;73.40;97923.34;5023496;28;20440;-75
2022/03/21 02:44:49;;;;;;;16.20;12.63;;;;;;;-0.65;75.16;97915.34;5033331;28;21039;-75
2022/03/21 02:47:15;;;;;;;21.67;14.33;;;;;;;-0.52;75.84;97924.03;5016308;28;20434;-74
2022/03/21 02:49:42;;;;;;;16.43;13.23;;;;;;;-0.58;78.53;97928.25;5017115;28;20874;-74
2022/03/21 02:52:10;;;;;;;27.97;18.40;;;;;;;-0.56;76.87;97936.63;5016344;28;20547;-74
2022/03/21 02:54:37;;;;;;;31.07;17.50;;;;;;;-0.77;77.77;97903.28;5017455;28;20637;-74
2022/03/21 02:57:04;;;;;;;23.20;16.57;;;;;;;-0.63;79.02;97930.72;5016864;28;20475;-75
2022/03/21 02:59:30;;;;;;;19.87;14.10;;;;;;;-0.65;78.77;97927.53;5024306;28;20428;-74
2022/03/21 03:01:57;;;;;;;17.93;13.10;;;;;;;-0.94;80.54;97931.56;5025087;28;20437;-74
2022/03/21 03:04:25;;;;;;;14.20;10.63;;;;;;;-1.14;82.66;97907.59;5026512;28;20462;-74
2022/03/21 03:06:52;;;;;;;23.10;15.43;;;;;;;-1.00;83.44;97912.47;5010164;28;20445;-74
2022/03/21 03:09:20;;;;;;;20.80;14.40;;;;;;;-0.97;84.13;97932.78;5010243;28;20483;-74
2022/03/21 03:11:47;;;;;;;19.87;13.30;;;;;;;-1.12;83.41;97905.56;5010284;28;20464;-74
2022/03/21 03:14:14;;;;;;;23.33;16.53;;;;;;;-1.09;83.65;97902.53;5042959;28;20452;-74
2022/03/21 03:16:40;;;;;;;26.37;17.60;;;;;;;-0.99;84.21;97929.63;5039589;28;20547;-74
2022/03/21 03:19:07;;;;;;;21.03;14.87;;;;;;;-1.37;84.87;97897.78;5026450;28;20454;-74
2022/03/21 03:21:41;;;;;;;21.40;15.50;;;;;;;-1.44;88.33;97917.78;5039502;28;20461;-74
2022/03/21 03:24:09;;;;;;;16.40;12.70;;;;;;;-1.45;91.78;97922.19;5010145;28;20923;-74
2022/03/21 03:26:39;;;;;;;15.83;11.30;;;;;;;-1.67;96.69;97933.88;5012906;28;20794;-74
2022/03/21 03:29:06;;;;;;;12.50;11.20;;;;;;;-1.66;99.59;97931.06;5019675;28;20467;-74
2022/03/21 03:31:34;;;;;;;14.87;11.77;;;;;;;-1.88;100.00;97904.66;5027872;28;20817;-74
2022/03/21 03:34:01;;;;;;;22.50;16.10;;;;;;;-2.02;100.00;97920.47;5018195;28;21017;-74
2022/03/21 03:36:28;;;;;;;42.00;23.37;;;;;;;-2.13;100.00;97929.72;5026146;28;20544;-74
2022/03/21 03:38:54;;;;;;;22.90;17.60;;;;;;;-2.19;100.00;97897.63;5042610;28;20515;-74
2022/03/21 03:41:21;;;;;;;16.40;13.67;;;;;;;-1.76;99.89;97935.09;5028326;28;20435;-74
2022/03/21 03:43:48;;;;;;;17.20;13.37;;;;;;;-1.84;98.65;97908.44;5030884;28;20518;-74
2022/03/21 03:46:19;;;;;;;13.83;10.30;;;;;;;-1.90;98.45;97939.56;5029299;28;20597;-74
2022/03/21 03:48:46;;;;;;;12.93;11.43;;;;;;;-2.09;100.00;97936.84;5029436;28;20447;-74
2022/03/21 03:51:13;;;;;;;13.97;12.57;;;;;;;-2.11;100.00;97925.13;5017297;28;20521;-73
2022/03/21 03:53:41;;;;;;;12.57;11.03;;;;;;;-1.92;100.00;97941.56;5029354;28;20522;-73
2022/03/21 03:56:08;;;;;;;18.57;11.77;;;;;;;-2.07;100.00;97939.25;5030578;28;20489;-74
2022/03/21 03:58:36;;;;;;;12.37;10.43;;;;;;;-1.95;99.73;97941.97;5061783;28;20423;-74
2022/03/21 04:01:07;;;;;;;16.67;12.43;;;;;;;-1.72;98.60;97946.69;5012491;28;20435;-74
2022/03/21 04:03:46;;;;;;;16.50;13.30;;;;;;;-1.65;97.72;97943.03;5015994;28;20848;-74
2022/03/21 04:06:21;;;;;;;14.60;11.50;;;;;;;-1.63;97.23;97937.63;5023234;28;21022;-74
2022/03/21 04:08:51;;;;;;;14.10;10.60;;;;;;;-1.49;96.59;97945.13;5029498;28;20452;-74
2022/03/21 04:11:18;;;;;;;18.73;13.10;;;;;;;-1.48;96.75;97948.50;5045872;28;20439;-74
2022/03/21 04:13:46;;;;;;;18.90;15.57;;;;;;;-1.35;96.24;97953.63;5012962;28;20435;-74
2022/03/21 04:16:17;;;;;;;21.33;16.53;;;;;;;-1.49;96.84;97934.75;5014259;28;20455;-74
2022/03/21 04:18:43;;;;;;;23.17;15.67;;;;;;;-1.65;96.75;97913.72;5033067;28;20549;-74
2022/03/21 04:21:24;;;;;;;22.47;14.53;;;;;;;-1.31;96.56;97954.81;5033113;28;20814;-74
2022/03/21 04:23:51;;;;;;;13.53;11.10;;;;;;;-1.94;100.00;97934.00;5034298;28;20788;-74
2022/03/21 04:26:19;;;;;;;14.77;11.73;;;;;;;-2.21;100.00;97917.78;5048417;28;20450;-74
2022/03/21 04:28:46;;;;;;;15.40;11.27;;;;;;;-2.26;100.00;97934.94;5012945;28;20531;-74
2022/03/21 04:31:12;;;;;;;17.10;12.33;;;;;;;-2.42;100.00;97931.75;5031036;28;20443;-74
2022/03/21 04:33:40;;;;;;;20.63;13.23;;;;;;;-2.00;100.00;97959.94;5024101;28;20551;-74
2022/03/21 04:36:06;;;;;;;16.23;11.37;;;;;;;-2.18;100.00;97945.84;5036272;28;20446;-73
2022/03/21 04:38:33;;;;;;;20.77;15.80;;;;;;;-2.19;100.00;97956.41;5034228;28;20420;-74
2022/03/21 04:41:00;;;;;;;19.90;14.20;;;;;;;-2.10;100.00;97965.56;5047671;28;20439;-74
2022/03/21 04:43:26;;;;;;;22.00;15.37;;;;;;;-2.35;100.00;97936.16;5032632;28;20475;-74
2022/03/21 04:45:53;;;;;;;20.40;14.10;;;;;;;-2.16;100.00;97961.19;5018546;28;20995;-74
2022/03/21 04:48:20;;;;;;;25.67;16.30;;;;;;;-2.17;100.00;97950.03;5012444;28;20531;-74
2022/03/21 04:50:47;;;;;;;19.63;13.80;;;;;;;-2.28;100.00;97952.44;5028561;28;21680;-74
2022/03/21 04:53:14;;;;;;;19.87;14.57;;;;;;;-2.22;100.00;97942.09;5031973;28;21010;-74
2022/03/21 04:55:41;;;;;;;18.60;13.57;;;;;;;-2.01;100.00;97951.34;5019832;28;20448;-74
2022/03/21 04:58:08;;;;;;;19.30;13.57;;;;;;;-2.10;100.00;97952.63;5029179;28;20538;-74
2022/03/21 05:00:38;;;;;;;17.20;13.37;;;;;;;-1.91;100.00;97969.06;5031988;28;20990;-74
2022/03/21 05:03:08;;;;;;;14.33;12.37;;;;;;;-2.43;100.00;97960.44;5031872;28;20459;-74
2022/03/21 05:05:42;;;;;;;13.67;11.17;;;;;;;-2.31;100.00;97979.56;5031962;28;20458;-74
2022/03/21 05:08:08;;;;;;;12.30;11.00;;;;;;;-2.44;100.00;97956.28;5031743;28;20489;-74
2022/03/21 05:10:35;;;;;;;13.70;10.53;;;;;;;-2.28;100.00;97973.97;5031527;28;20478;-73
2022/03/21 05:13:03;;;;;;;15.47;13.00;;;;;;;-2.15;100.00;97973.13;5034036;28;20975;-73
2022/03/21 05:15:32;;;;;;;14.73;11.20;;;;;;;-2.23;100.00;97971.59;5031583;28;20551;-73
2022/03/21 05:17:59;;;;;;;16.10;12.27;;;;;;;-2.32;100.00;97975.38;5016130;28;20864;-73
2022/03/21 05:20:27;;;;;;;14.80;10.97;;;;;;;-2.23;100.00;97976.75;5031764;28;20495;-73
2022/03/21 05:31:10;;;;;;;18.50;11.50;;;;;;;-2.18;100.00;97970.97;5032707;28;20522;-73
2022/03/21 05:36:25;;;;;;;15.43;10.60;;;;;;;-2.02;100.00;97944.59;5017018;28;20455;-73
2022/03/21 05:38:52;;;;;;;12.70;10.50;;;;;;;-2.08;100.00;97985.09;5031490;28;20488;-73
2022/03/21 05:41:19;;;;;;;13.87;11.10;;;;;;;-2.00;100.00;97984.06;5031186;28;20449;-73
2022/03/21 05:43:45;;;;;;;14.90;11.00;;;;;;;-2.12;100.00;97945.03;5032018;28;21327;-73
2022/03/21 05:46:12;;;;;;;11.93;10.67;;;;;;;-2.46;100.00;97953.09;5031147;28;20979;-73
2022/03/21 05:48:54;;;;;;;12.33;11.07;;;;;;;-2.33;100.00;97985.94;5030980;28;20831;-73
2022/03/21 05:51:28;;;;;;;12.97;11.57;;;;;;;-2.59;100.00;97977.22;5030926;28;20437;-73
2022/03/21 05:53:56;;;;;;;12.30;11.07;;;;;;;-2.73;100.00;97986.78;5030707;28;21056;-72
2022/03/21 05:56:25;;;;;;;12.83;11.30;;;;;;;-2.44;100.00;97995.13;5014457;28;20459;-73
2022/03/21 05:58:53;;;;;;;13.97;12.10;;;;;;;-2.47;100.00;97965.25;5030991;28;21063;-73
2022/03/21 06:01:24;;;;;;;12.60;11.30;;;;;;;-2.06;100.00;97971.13;5030794;28;20471;-73
2022/03/21 06:03:53;;;;;;;13.60;10.60;;;;;;;-2.09;100.00;97993.06;5030707;28;20809;-73
2022/03/21 06:06:23;;;;;;;25.13;17.37;;;;;;;-2.09;100.00;97980.09;5032022;28;20789;-73
2022/03/21 06:08:51;;;;;;;27.40;18.23;;;;;;;-2.00;100.00;97991.84;5030556;28;21009;-73
2022/03/21 06:11:19;;;;;;;18.63;15.00;;;;;;;-2.09;100.00;97996.44;5030559;28;20474;-73
2022/03/21 06:13:47;;;;;;;20.93;15.43;;;;;;;-2.08;100.00;97987.69;5014011;28;20521;-73
2022/03/21 06:16:15;;;;;;;20.70;14.73;;;;;;;-2.03;100.00;98007.00;5031761;28;20819;-73
2022/03/21 06:18:42;;;;;;;16.27;11.87;;;;;;;-2.00;100.00;97985.84;5031749;28;20769;-73
2022/03/21 06:21:09;;;;;;;14.57;12.17;;;;;;;-1.85;100.00;98007.16;5030357;28;20439;-74
2022/03/21 06:23:37;;;;;;;13.83;11.67;;;;;;;-2.20;100.00;97976.34;5029875;28;20434;-73
2022/03/21 06:26:04;;;;;;;15.87;12.20;;;;;;;-1.99;100.00;98016.75;5031621;28;20812;-74
2022/03/21 06:28:32;;;;;;;13.80;12.40;;;;;;;-2.03;100.00;98018.16;5063562;28;20485;-72
2022/03/21 06:30:59;;;;;;;15.23;13.50;;;;;;;-2.10;100.00;97991.47;5030147;28;20569;-73
2022/03/21 06:33:28;;;;;;;19.50;14.97;;;;;;;-1.86;100.00;98010.75;5023516;28;20881;-72
2022/03/21 06:35:58;;;;;;;17.77;15.10;;;;;;;-1.59;100.00;98032.19;5056957;28;20467;-72
2022/03/21 06:38:25;;;;;;;23.57;15.37;;;;;;;-1.66;100.00;98006.25;5031599;28;20432;-72
2022/03/21 06:40:52;;;;;;;22.13;15.80;;;;;;;-1.42;100.00;98032.50;5030063;28;21013;-72
2022/03/21 06:43:20;;;;;;;25.73;16.53;;;;;;;-1.34;100.00;98043.41;5013749;28;20526;-72
2022/03/21 06:45:52;;;;;;;18.90;16.10;;;;;;;-1.42;100.00;98046.25;5030122;28;20447;-72
2022/03/21 06:48:20;;;;;;;21.87;17.07;;;;;;;-1.25;100.00;98044.78;5030029;28;20992;-72
2022/03/21 06:50:48;;;;;;;19.30;16.50;;;;;;;-1.33;100.00;98031.25;5031273;28;20430;-73
2022/03/21 06:53:16;;;;;;;28.03;19.10;;;;;;;-1.23;100.00;98044.56;5029938;28;20467;-73
2022/03/21 06:55:44;;;;;;;21.63;17.53;;;;;;;-0.99;100.00;98056.81;5029898;28;20462;-73
2022/03/21 06:58:13;;;;;;;24.80;15.60;;;;;;;-1.00;100.00;98010.28;5031236;28;20886;-73
2022/03/21 07:00:41;;;;;;;25.10;16.57;;;;;;;-0.47;100.00;98051.44;5025998;28;20470;-73
2022/03/21 07:03:12;;;;;;;20.60;15.00;;;;;;;-0.35;100.00;98034.16;5021065;28;20509;-73
2022/03/21 07:05:39;;;;;;;24.53;15.90;;;;;;;0.04;100.00;98042.59;5029920;28;20513;-73
2022/03/21 07:08:05;;;;;;;20.03;14.67;;;;;;;0.38;100.00;98056.81;5029802;28;20534;-73
2022/03/21 07:10:33;;;;;;;24.13;14.30;;;;;;;0.48;100.00;98033.69;5029541;28;20533;-73
2022/03/21 07:13:07;;;;;;;14.07;11.53;;;;;;;0.62;92.99;98031.69;5029605;28;20506;-73
2022/03/21 07:15:34;;;;;;;14.30;10.97;;;;;;;1.34;88.94;98066.38;5030982;28;20881;-73
2022/03/21 07:18:01;;;;;;;12.50;9.23;;;;;;;1.54;82.47;98061.63;5029678;28;20470;-73
2022/03/21 07:20:28;;;;;;;9.53;8.63;;;;;;;1.48;78.54;98044.31;5062872;28;20451;-73
2022/03/21 07:22:57;;;;;;;11.63;7.77;;;;;;;1.85;76.00;98077.97;5045824;28;20990;-73
2022/03/21 07:25:24;;;;;;;8.70;7.90;;;;;;;2.22;72.61;98088.97;5024476;28;20846;-73
2022/03/21 07:27:51;;;;;;;9.63;8.63;;;;;;;2.13;69.63;98098.16;5011158;28;20456;-73
2022/03/21 07:30:19;;;;;;;9.17;8.10;;;;;;;2.13;68.97;98095.56;5013235;28;20531;-73
2022/03/21 07:32:46;;;;;;;10.60;7.90;;;;;;;2.59;68.17;98092.09;5012055;28;20468;-73
2022/03/21 07:35:13;;;;;;;11.50;8.20;;;;;;;2.10;66.82;98062.09;5019437;28;20888;-74
2022/03/21 07:37:40;;;;;;;18.53;8.50;;;;;;;2.31;64.96;98106.69;5033402;28;20470;-73
2022/03/21 07:40:10;;;;;;;12.13;8.80;;;;;;;1.94;64.34;98074.03;5017278;28;20435;-73
2022/03/21 07:42:39;;;;;;;14.10;8.33;;;;;;;2.08;63.24;98097.03;5034885;28;20428;-73
2022/03/21 07:47:54;;;;;;;10.83;8.70;;;;;;;2.51;61.69;98092.44;5033325;28;20444;-73
2022/03/21 07:50:23;;;;;;;10.03;8.87;;;;;;;2.89;61.77;98094.50;5034640;28;20450;-73
2022/03/21 07:52:51;;;;;;;11.40;8.27;;;;;;;2.56;61.77;98082.13;5033066;28;20466;-73
2022/03/21 07:55:18;;;;;;;13.03;8.30;;;;;;;2.87;61.49;98094.75;5034452;28;20443;-73
2022/03/21 07:57:44;;;;;;;9.43;7.93;;;;;;;3.17;60.98;98083.25;5034496;28;20428;-74
2022/03/21 08:00:13;;;;;;;8.87;8.00;;;;;;;3.46;60.11;98110.16;5036325;28;20444;-73
2022/03/21 08:02:42;;;;;;;10.67;8.40;;;;;;;3.36;59.51;98108.19;5020222;28;20435;-73
2022/03/21 08:05:10;;;;;;;10.10;7.93;;;;;;;3.21;58.39;98085.19;5034427;28;20458;-73
2022/03/21 08:07:37;;;;;;;9.20;8.20;;;;;;;3.37;58.19;98085.44;5033295;28;20458;-73
2022/03/21 08:10:04;;;;;;;10.67;9.57;;;;;;;3.02;58.40;98096.84;5033130;28;21256;-73
2022/03/21 08:12:36;;;;;;;9.63;8.20;;;;;;;3.51;59.19;98113.66;5033783;28;20419;-73
2022/03/21 08:15:06;;;;;;;9.97;8.60;;;;;;;3.15;57.76;98080.88;5066067;28;20451;-73
2022/03/21 08:17:57;;;;;;;9.83;8.20;;;;;;;3.76;58.72;98110.66;5034142;28;20427;-73
2022/03/21 08:20:35;;;;;;;12.17;8.30;;;;;;;3.63;56.41;98076.19;5034140;28;21226;-74
2022/03/21 08:23:07;;;;;;;10.97;8.20;;;;;;;4.17;56.62;98095.56;5016389;28;20431;-74
2022/03/21 08:25:35;;;;;;;14.30;7.50;;;;;;;3.91;56.87;98068.25;5032764;28;20533;-74
2022/03/21 08:28:04;;;;;;;11.10;8.63;;;;;;;3.84;57.65;98106.84;5016297;28;20439;-73
2022/03/21 08:30:33;;;;;;;13.50;9.17;;;;;;;3.60;56.75;98079.25;5032836;28;20451;-73
2022/03/21 08:33:01;;;;;;;10.50;8.70;;;;;;;3.80;56.15;98109.16;5045845;28;20466;-74
2022/03/21 08:35:30;;;;;;;8.63;7.73;;;;;;;4.04;57.15;98094.06;5029098;28;20456;-74
2022/03/21 08:37:58;;;;;;;9.90;8.53;;;;;;;3.99;56.17;98104.44;5029485;28;20523;-73
2022/03/21 08:40:25;;;;;;;10.57;8.57;;;;;;;4.24;57.90;98100.63;5016343;28;20444;-73
2022/03/21 08:42:52;;;;;;;12.43;8.67;;;;;;;4.45;55.24;98082.31;5032323;28;20467;-74
2022/03/21 08:45:21;;;;;;;13.10;9.53;;;;;;;4.54;54.80;98092.38;5033154;28;20476;-74
2022/03/21 08:47:52;;;;;;;11.20;9.33;;;;;;;4.13;55.06;98066.44;5032226;28;21175;-74
2022/03/21 08:50:24;;;;;;;10.57;8.33;;;;;;;4.56;54.53;98098.19;5032465;28;20490;-74
2022/03/21 08:52:51;;;;;;;14.67;9.83;;;;;;;4.58;54.32;98062.06;5033337;28;20471;-74
2022/03/21 08:55:18;;;;;;;12.63;8.37;;;;;;;4.41;54.31;98075.22;5032057;28;20502;-74
2022/03/21 08:57:44;;;;;;;11.70;9.80;;;;;;;4.55;54.61;98086.13;5031889;28;20448;-74
2022/03/21 09:00:13;;;;;;;14.33;8.80;;;;;;;4.63;55.17;98060.25;5033376;28;20462;-74
2022/03/21 09:02:41;;;;;;;10.90;8.53;;;;;;;5.10;54.98;98093.81;5032003;28;21021;-74
2022/03/21 09:05:12;;;;;;;8.50;7.67;;;;;;;4.91;54.50;98067.13;5031873;28;20464;-75
2022/03/21 09:07:42;;;;;;;11.20;8.23;;;;;;;5.04;53.15;98085.09;5015902;28;21038;-74
2022/03/21 09:10:12;;;;;;;13.63;8.30;;;;;;;4.82;53.95;98079.09;5031626;28;20451;-74
2022/03/21 09:12:39;;;;;;;9.13;8.13;;;;;;;4.96;52.94;98092.63;5015757;28;20970;-74
2022/03/21 09:15:06;;;;;;;11.70;8.30;;;;;;;5.31;55.36;98079.84;5064821;28;20447;-74
2022/03/21 09:17:36;;;;;;;12.17;8.73;;;;;;;5.53;53.70;98082.41;5033101;28;20570;-74
2022/03/21 09:20:03;;;;;;;8.60;7.83;;;;;;;5.50;53.94;98063.75;5032920;28;20419;-74
2022/03/21 09:22:31;;;;;;;12.57;9.17;;;;;;;5.38;53.91;98084.09;5032985;28;20921;-74
2022/03/21 09:24:58;;;;;;;9.93;8.60;;;;;;;5.69;53.46;98093.03;5031468;28;21217;-74
2022/03/21 09:27:27;;;;;;;11.43;9.00;;;;;;;5.86;52.26;98085.78;5047911;28;20502;-74
2022/03/21 09:29:55;;;;;;;9.33;8.50;;;;;;;5.64;51.86;98075.41;5027819;28;20433;-74
2022/03/21 09:32:21;;;;;;;9.90;8.00;;;;;;;5.84;52.34;98091.28;5028109;28;20486;-74
2022/03/21 09:34:49;;;;;;;14.10;7.80;;;;;;;5.98;52.06;98072.53;5017132;28;20616;-74
2022/03/21 09:37:16;;;;;;;10.60;8.60;;;;;;;6.01;52.15;98083.31;5031455;28;20439;-74
2022/03/21 09:39:42;;;;;;;9.40;8.33;;;;;;;6.20;51.29;98087.09;5018017;28;20432;-74
2022/03/21 09:42:09;;;;;;;9.73;8.73;;;;;;;6.42;52.42;98079.09;5032653;28;20498;-74
2022/03/21 09:44:36;;;;;;;8.87;7.90;;;;;;;6.46;50.88;98077.53;5047656;28;20542;-74
2022/03/21 09:48:08;;;;;;;9.90;8.90;;;;;;;6.31;49.84;98072.19;5031281;28;20428;-74
2022/03/21 09:49:52;;;;;;;11.33;8.50;;;;;;;6.42;50.79;98038.91;5032490;28;20437;-74
2022/03/21 09:52:21;;;;;;;9.73;8.83;;;;;;;6.79;50.40;98078.16;5032417;28;20470;-74
2022/03/21 09:54:50;;;;;;;10.97;8.43;;;;;;;6.88;50.60;98081.09;5014552;28;20916;-74
2022/03/21 09:57:18;;;;;;;12.30;8.90;;;;;;;6.81;49.85;98061.13;5030261;28;20523;-74
2022/03/21 09:59:45;;;;;;;10.33;8.97;;;;;;;6.71;49.24;98050.56;5014571;28;20440;-74
2022/03/21 10:02:18;;;;;;;10.30;9.03;;;;;;;6.85;49.46;98081.63;5014541;28;20435;-74
2022/03/21 10:04:46;;;;;;;10.20;8.17;;;;;;;7.13;48.68;98083.00;5063849;28;20859;-74
2022/03/21 10:07:13;;;;;;;10.27;8.10;;;;;;;7.08;48.38;98084.59;5063962;28;20448;-74
2022/03/21 10:09:40;;;;;;;11.90;9.13;;;;;;;7.16;50.64;98070.13;5046969;28;20447;-74
2022/03/21 10:12:10;;;;;;;9.30;8.27;;;;;;;7.43;49.62;98077.78;5009807;28;20445;-74
2022/03/21 10:14:38;;;;;;;10.13;8.87;;;;;;;7.36;48.00;98077.28;5012669;28;20510;-74
2022/03/21 10:17:09;;;;;;;9.07;8.20;;;;;;;6.86;47.34;98075.31;5031648;28;20471;-75
2022/03/21 10:19:53;;;;;;;11.20;8.93;;;;;;;7.26;47.72;98057.00;5002693;28;20440;-75
2022/03/21 10:22:21;;;;;;;11.00;8.80;;;;;;;7.05;46.21;98071.94;5007592;28;20819;-74
2022/03/21 10:24:50;;;;;;;10.07;9.17;;;;;;;7.00;46.57;98047.47;5031821;28;20518;-74
2022/03/21 10:27:26;;;;;;;10.17;7.97;;;;;;;6.89;46.25;98011.69;5032009;28;20924;-74
2022/03/21 10:29:59;;;;;;;9.37;8.43;;;;;;;7.43;45.85;98046.22;5030295;28;20821;-74
2022/03/21 10:32:31;;;;;;;12.03;8.40;;;;;;;7.69;46.45;98074.09;5030518;28;20444;-74
2022/03/21 10:35:10;;;;;;;11.43;10.07;;;;;;;7.95;46.10;98072.25;5018297;28;20476;-74
2022/03/21 10:37:55;;;;;;;9.33;8.40;;;;;;;8.03;46.58;98028.00;5030326;28;20440;-74
2022/03/21 10:40:32;;;;;;;12.10;9.20;;;;;;;8.19;44.34;98069.84;5020477;28;20516;-74
2022/03/21 10:43:07;;;;;;;8.20;7.27;;;;;;;8.13;44.54;98075.38;5010543;28;20447;-74
2022/03/21 10:45:34;;;;;;;11.43;10.23;;;;;;;7.94;45.04;98077.78;5023231;28;20467;-74
2022/03/21 10:48:06;;;;;;;11.93;8.07;;;;;;;7.97;44.14;98056.16;5030125;28;20579;-74
2022/03/21 10:50:35;;;;;;;11.17;8.60;;;;;;;8.45;44.30;98064.53;5029532;28;20448;-74
2022/03/21 10:53:22;;;;;;;11.10;8.63;;;;;;;8.52;44.23;98063.16;5018964;28;20460;-74
2022/03/21 10:56:01;;;;;;;11.13;9.23;;;;;;;8.17;44.24;98040.34;5030003;28;20562;-74
2022/03/21 10:58:35;;;;;;;11.10;8.13;;;;;;;8.54;43.50;98068.16;5031411;28;20829;-74
2022/03/21 11:01:17;;;;;;;10.67;9.10;;;;;;;8.18;43.09;98057.72;5029985;28;20427;-74
2022/03/21 11:03:49;;;;;;;10.67;9.57;;;;;;;8.34;43.25;98061.13;5031198;28;20848;-74
2022/03/21 11:06:17;;;;;;;16.60;8.77;;;;;;;8.43;44.27;98042.91;5029828;28;20468;-75
2022/03/21 11:08:45;;;;;;;12.53;9.70;;;;;;;8.67;43.64;98049.13;5029627;28;20435;-74
2022/03/21 11:11:11;;;;;;;9.87;8.90;;;;;;;8.62;42.84;98051.78;5062993;28;20459;-74
2022/03/21 11:13:38;;;;;;;10.40;9.30;;;;;;;8.54;43.46;98057.63;5013401;28;20468;-74
2022/03/21 11:16:05;;;;;;;10.70;8.87;;;;;;;8.33;43.31;98029.75;5031168;28;20452;-74
2022/03/21 11:18:32;;;;;;;10.23;9.20;;;;;;;8.79;43.95;98041.69;5000232;28;20431;-74
2022/03/21 11:21:00;;;;;;;10.50;9.40;;;;;;;9.39;43.16;98054.78;5031099;28;20875;-74
2022/03/21 11:23:27;;;;;;;11.40;9.20;;;;;;;9.15;42.31;98046.75;5062662;28;20916;-74
2022/03/21 11:26:25;;;;;;;11.07;8.40;;;;;;;9.60;41.87;98021.06;5030733;28;20455;-74
2022/03/21 11:29:17;;;;;;;10.77;9.70;;;;;;;10.00;41.76;98039.19;5054390;28;20459;-74
2022/03/21 11:32:06;;;;;;;8.60;7.70;;;;;;;10.20;40.96;98048.00;5028798;28;20476;-74
2022/03/21 11:34:43;;;;;;;8.43;7.50;;;;;;;10.13;40.10;97998.09;5016645;28;20478;-74
2022/03/21 11:37:33;;;;;;;10.33;9.17;;;;;;;10.76;39.47;98037.56;5046128;28;20443;-74
2022/03/21 11:40:24;;;;;;;11.33;10.30;;;;;;;11.15;39.84;98039.94;5029667;28;20444;-75
2022/03/21 11:42:54;;;;;;;9.60;8.60;;;;;;;10.52;38.79;97992.63;5012371;28;20440;-74
2022/03/21 11:45:27;;;;;;;12.43;8.87;;;;;;;10.98;38.83;98036.22;5004614;28;20457;-74
2022/03/21 11:48:18;;;;;;;9.90;8.43;;;;;;;10.64;39.08;98027.38;5029424;28;20473;-74
2022/03/21 11:50:47;;;;;;;9.83;8.77;;;;;;;10.44;38.36;98017.06;5032883;28;20425;-74